Avoca, Nebraska
Current Conditions -  °F | °C
As of 6:15 PM on Monday 24 Nov 2014 (Local Time) from KPMV Reporting Station
Clear Clear  
Wind Chill: 21°   Ceiling: Unl
Heat Index: 31°   Visibility: 10mi
Dew Point: 12°   Wind: 13mph
Humidity: 45%   Direction: 300°WNW
Pressure: 29.94"   Gusts: 20mph
Location:  40.8°N, 96.12°W
Report Text: KPMV 250015Z AUTO 30011G17KT 10SM CLR 00/M11 A2994 RMK AO2 T10051113
Loading
Personal Weather Stations






























Interactive Weather Map New forecast layout! Learn more

10-Day Weather Forecast

Advertisements
Track Severe Weather on mobile